createdAt,value
2023-02-17T00:01:33.313Z,12.30
2023-02-17T00:04:00.926Z,11.55
2023-02-17T00:06:30.670Z,11.80
2023-02-17T00:08:59.977Z,11.45
2023-02-17T00:11:28.446Z,11.50
2023-02-17T00:16:28.047Z,11.90
2023-02-17T00:19:00.399Z,11.82
2023-02-17T00:21:31.742Z,13.07
2023-02-17T00:23:59.930Z,12.52
2023-02-17T00:26:27.505Z,12.55
2023-02-17T00:28:54.762Z,13.02
2023-02-17T00:31:23.783Z,11.82
2023-02-17T00:33:56.166Z,12.05
2023-02-17T00:36:25.506Z,11.73
2023-02-17T00:38:57.764Z,13.15
2023-02-17T00:41:28.951Z,12.38
2023-02-17T00:43:58.658Z,12.47
2023-02-17T00:46:26.994Z,13.68
2023-02-17T00:48:54.725Z,11.45
2023-02-17T00:51:22.182Z,12.75
2023-02-17T00:53:50.056Z,14.18
2023-02-17T00:56:17.804Z,12.75
2023-02-17T00:58:46.202Z,14.25
2023-02-17T01:01:13.973Z,12.27
2023-02-17T01:03:42.147Z,14.35
2023-02-17T01:06:21.805Z,12.30
2023-02-17T01:08:49.074Z,12.98
2023-02-17T01:11:24.185Z,13.10
2023-02-17T01:13:52.340Z,13.25
2023-02-17T01:16:25.035Z,14.77
2023-02-17T01:18:53.211Z,13.07
2023-02-17T01:21:28.010Z,12.60
2023-02-17T01:24:00.430Z,14.23
2023-02-17T01:26:32.816Z,14.15
2023-02-17T01:29:03.857Z,15.20
2023-02-17T01:31:31.156Z,14.90
2023-02-17T01:34:01.188Z,13.80
2023-02-17T01:36:29.160Z,13.77
2023-02-17T01:38:56.356Z,14.02
2023-02-17T01:41:27.087Z,13.15
2023-02-17T01:44:20.643Z,14.60
2023-02-17T01:46:51.937Z,13.85
2023-02-17T01:49:39.710Z,13.85
2023-02-17T01:52:17.561Z,13.30
2023-02-17T01:54:57.818Z,15.18
2023-02-17T01:57:33.097Z,12.90
2023-02-17T02:00:00.682Z,14.02
2023-02-17T02:02:32.039Z,14.68
2023-02-17T02:05:00.600Z,12.68
2023-02-17T02:10:03.178Z,13.73
2023-02-17T02:12:35.659Z,12.98
2023-02-17T02:15:10.110Z,13.00
2023-02-17T02:18:06.518Z,13.30
2023-02-17T02:20:52.441Z,12.48
2023-02-17T02:27:14.588Z,11.80
2023-02-17T02:30:23.980Z,12.30
2023-02-17T02:33:26.357Z,14.40
2023-02-17T02:36:20.144Z,11.43
2023-02-17T02:39:10.330Z,11.60
2023-02-17T02:41:48.575Z,11.70
2023-02-17T02:44:21.067Z,13.02
2023-02-17T02:47:06.817Z,12.20
2023-02-17T02:49:36.732Z,12.27
2023-02-17T02:52:33.636Z,11.48
2023-02-17T02:55:37.822Z,12.75
2023-02-17T02:58:39.194Z,10.30
2023-02-17T03:01:36.174Z,11.98
2023-02-17T03:04:36.154Z,11.82
2023-02-17T03:07:21.254Z,11.63
2023-02-17T03:09:58.577Z,11.80
2023-02-17T03:12:29.077Z,12.32
2023-02-17T03:15:30.840Z,10.38
2023-02-17T03:18:02.900Z,11.95
2023-02-17T03:20:40.185Z,11.77
2023-02-17T03:23:07.991Z,11.90
2023-02-17T03:25:35.906Z,12.10
2023-02-17T03:28:04.411Z,11.95
2023-02-17T03:30:31.676Z,11.07
2023-02-17T03:32:58.925Z,12.40
2023-02-17T03:35:26.073Z,11.95
2023-02-17T03:37:53.285Z,10.60
2023-02-17T03:40:20.626Z,11.48
2023-02-17T03:42:47.967Z,10.95
2023-02-17T03:45:15.206Z,12.35
2023-02-17T03:47:42.330Z,11.95
2023-02-17T03:50:10.094Z,11.32
2023-02-17T03:52:37.400Z,12.05
2023-02-17T03:55:05.151Z,12.60
2023-02-17T03:57:34.699Z,12.65
2023-02-17T04:00:02.050Z,12.10
2023-02-17T04:02:29.486Z,12.05
2023-02-17T04:04:56.740Z,13.43
2023-02-17T04:07:23.964Z,11.98
2023-02-17T04:09:51.144Z,11.88
2023-02-17T04:12:18.513Z,11.73
2023-02-17T04:14:45.683Z,12.63
2023-02-17T04:17:12.922Z,12.65
2023-02-17T04:19:40.289Z,11.85
2023-02-17T04:22:08.942Z,11.48
2023-02-17T04:24:37.264Z,12.35
2023-02-17T04:27:05.886Z,11.20
2023-02-17T04:29:33.721Z,12.55
2023-02-17T04:32:01.201Z,12.75
2023-02-17T04:34:28.631Z,12.82
2023-02-17T04:36:55.932Z,11.05
2023-02-17T04:39:23.080Z,12.52
2023-02-17T04:41:50.256Z,11.88
2023-02-17T04:44:17.405Z,11.20
2023-02-17T04:46:44.583Z,12.77
2023-02-17T04:49:11.844Z,13.23
2023-02-17T04:51:38.968Z,12.15
2023-02-17T04:54:06.117Z,12.77
2023-02-17T04:56:33.342Z,12.45
2023-02-17T04:59:00.527Z,13.38
2023-02-17T05:01:27.846Z,12.50
2023-02-17T05:03:54.961Z,13.30
2023-02-17T05:06:22.107Z,13.20
2023-02-17T05:08:50.579Z,13.40
2023-02-17T05:13:45.046Z,13.13
2023-02-17T05:16:12.218Z,13.02
2023-02-17T05:18:39.461Z,15.40
2023-02-17T05:21:06.809Z,14.68
2023-02-17T05:23:41.125Z,14.00
2023-02-17T05:26:09.637Z,15.88
2023-02-17T05:31:05.054Z,14.68
2023-02-17T05:33:32.855Z,15.82
2023-02-17T05:36:07.814Z,15.15
2023-02-17T05:38:36.630Z,15.25
2023-02-17T05:41:04.464Z,15.27
2023-02-17T05:43:32.631Z,15.52
2023-02-17T05:46:04.424Z,15.88
2023-02-17T05:48:32.324Z,13.07
2023-02-17T05:51:00.232Z,15.20
2023-02-17T05:53:27.959Z,16.13
2023-02-17T05:55:55.328Z,16.08
2023-02-17T05:58:22.643Z,15.18
2023-02-17T06:00:50.073Z,15.98
2023-02-17T06:03:17.976Z,15.18
2023-02-17T06:05:45.916Z,16.27
2023-02-17T06:08:13.070Z,15.35
2023-02-17T06:10:42.168Z,16.23
2023-02-17T06:13:09.566Z,15.88
2023-02-17T06:15:36.882Z,16.25
2023-02-17T06:18:04.274Z,14.80
2023-02-17T06:20:31.519Z,19.48
2023-02-17T06:22:58.818Z,18.95
2023-02-17T06:25:25.929Z,19.23
2023-02-17T06:27:54.259Z,18.65
2023-02-17T06:30:21.909Z,18.83
2023-02-17T06:32:49.054Z,18.27
2023-02-17T06:35:16.941Z,18.00
2023-02-17T06:37:44.513Z,19.08
2023-02-17T06:40:12.735Z,17.23
2023-02-17T06:42:39.865Z,18.55
2023-02-17T06:45:07.956Z,15.00
2023-02-17T06:47:35.835Z,17.38
2023-02-17T06:50:03.381Z,14.80
2023-02-17T06:52:30.607Z,14.25
2023-02-17T06:54:57.808Z,15.63
2023-02-17T06:57:24.982Z,14.90
2023-02-17T06:59:52.156Z,15.60
2023-02-17T07:02:19.447Z,15.52
2023-02-17T07:04:46.716Z,16.58
2023-02-17T07:07:14.201Z,16.13
2023-02-17T07:09:41.437Z,16.83
2023-02-17T07:12:08.672Z,17.80
2023-02-17T07:14:36.346Z,18.42
2023-02-17T07:17:03.646Z,17.25
2023-02-17T07:19:31.079Z,20.45
2023-02-17T07:21:58.477Z,18.70
2023-02-17T07:24:26.225Z,20.00
2023-02-17T07:26:55.948Z,22.65
2023-02-17T07:29:23.820Z,19.98
2023-02-17T07:31:51.074Z,22.88
2023-02-17T07:34:18.776Z,20.48
2023-02-17T07:36:45.910Z,22.35
2023-02-17T07:39:13.086Z,20.88
2023-02-17T07:41:40.286Z,22.73
2023-02-17T07:44:10.582Z,18.67
2023-02-17T07:46:39.800Z,21.35
2023-02-17T07:49:06.963Z,21.08
2023-02-17T07:51:34.280Z,20.38
2023-02-17T07:54:02.561Z,19.10
2023-02-17T07:56:30.061Z,21.50
2023-02-17T07:58:57.204Z,21.35
2023-02-17T08:01:26.058Z,22.33
2023-02-17T08:03:53.947Z,23.10
2023-02-17T08:06:24.880Z,21.27
2023-02-17T08:09:12.481Z,22.67
2023-02-17T08:11:59.885Z,19.25
2023-02-17T08:14:31.214Z,21.50
2023-02-17T08:16:59.110Z,23.80
2023-02-17T08:19:31.747Z,22.38
2023-02-17T08:22:06.815Z,22.42
2023-02-17T08:24:33.952Z,23.35
2023-02-17T08:27:01.121Z,21.88
2023-02-17T08:29:28.316Z,22.58
2023-02-17T08:31:55.506Z,21.77
2023-02-17T08:34:22.755Z,20.90
2023-02-17T08:36:50.107Z,19.98
2023-02-17T08:39:18.480Z,20.30
2023-02-17T08:44:18.784Z,19.33
2023-02-17T08:46:48.189Z,20.80
2023-02-17T08:49:25.974Z,19.40
2023-02-17T08:51:53.652Z,21.38
2023-02-17T08:54:20.837Z,21.60
2023-02-17T08:56:48.034Z,20.30
2023-02-17T08:59:15.404Z,20.15
2023-02-17T09:01:43.544Z,20.10
2023-02-17T09:04:14.544Z,20.08
2023-02-17T09:06:52.486Z,21.15
2023-02-17T09:09:26.923Z,20.35
2023-02-17T09:11:57.806Z,21.73
2023-02-17T09:14:25.898Z,21.40
2023-02-17T09:16:55.168Z,20.42
2023-02-17T09:19:23.820Z,19.42
2023-02-17T09:21:51.060Z,19.60
2023-02-17T09:24:19.204Z,19.60
2023-02-17T09:26:46.560Z,19.33
2023-02-17T09:29:13.741Z,19.35
2023-02-17T09:31:41.315Z,18.90
2023-02-17T09:34:08.676Z,19.38
2023-02-17T09:36:42.063Z,19.58
2023-02-17T09:39:12.312Z,19.13
2023-02-17T09:41:52.306Z,17.90
2023-02-17T09:44:27.636Z,20.20
2023-02-17T09:47:11.132Z,19.98
2023-02-17T09:49:45.019Z,20.38
2023-02-17T09:52:27.980Z,19.77
2023-02-17T09:55:15.220Z,18.67
2023-02-17T09:58:18.809Z,19.35
2023-02-17T10:00:53.486Z,19.08
2023-02-17T10:03:41.665Z,18.63
2023-02-17T10:06:38.333Z,18.73
2023-02-17T10:09:25.624Z,18.55
2023-02-17T10:12:24.506Z,18.75
2023-02-17T10:17:59.261Z,18.58
2023-02-17T10:20:36.946Z,17.00
2023-02-17T10:23:27.014Z,17.17
2023-02-17T10:26:09.152Z,19.27
2023-02-17T10:29:44.231Z,17.35
2023-02-17T10:32:41.706Z,16.90
2023-02-17T10:35:47.443Z,17.88
2023-02-17T10:38:42.595Z,18.60
2023-02-17T10:41:16.144Z,19.63
2023-02-17T10:43:44.784Z,17.08
2023-02-17T10:46:15.947Z,17.67
2023-02-17T10:48:53.582Z,16.08
2023-02-17T10:51:28.683Z,19.05
2023-02-17T10:54:25.865Z,16.42
2023-02-17T10:56:58.236Z,17.17
2023-02-17T10:59:39.141Z,17.17
2023-02-17T11:02:40.281Z,16.48
2023-02-17T11:05:09.065Z,15.77
2023-02-17T11:07:41.892Z,16.35
2023-02-17T11:10:24.318Z,16.65
2023-02-17T11:12:52.264Z,14.73
2023-02-17T11:15:24.781Z,17.23
2023-02-17T11:17:53.237Z,15.45
2023-02-17T11:20:20.360Z,13.00
2023-02-17T11:23:04.891Z,12.35
2023-02-17T11:25:37.589Z,9.90
2023-02-17T11:28:14.028Z,10.32
2023-02-17T11:30:53.736Z,10.18
2023-02-17T11:33:34.049Z,9.48
2023-02-17T11:36:02.964Z,9.90
2023-02-17T11:38:45.843Z,8.57
2023-02-17T11:41:13.664Z,9.63
2023-02-17T11:43:59.187Z,10.48
2023-02-17T11:46:47.461Z,9.15
2023-02-17T11:49:32.056Z,8.88
2023-02-17T11:52:27.370Z,8.80
2023-02-17T11:55:46.291Z,9.50
2023-02-17T11:58:33.810Z,7.03
2023-02-17T12:01:41.063Z,8.90
2023-02-17T12:04:38.411Z,9.70
2023-02-17T12:07:47.626Z,9.38
2023-02-17T12:10:46.416Z,9.95
2023-02-17T12:16:46.041Z,10.27
2023-02-17T12:20:09.368Z,8.85
2023-02-17T12:23:28.632Z,9.45
2023-02-17T12:26:29.910Z,11.05
2023-02-17T12:29:57.577Z,8.38
2023-02-17T12:33:33.818Z,9.98
2023-02-17T12:36:14.786Z,10.70
2023-02-17T12:38:54.559Z,9.73
2023-02-17T12:41:36.782Z,9.45
2023-02-17T12:44:23.018Z,10.38
2023-02-17T12:46:57.704Z,8.05
2023-02-17T12:49:42.913Z,9.98
2023-02-17T12:52:36.584Z,9.90
2023-02-17T12:55:25.038Z,10.60
2023-02-17T12:58:12.352Z,9.40
2023-02-17T13:01:00.004Z,11.30
2023-02-17T13:03:34.695Z,9.88
2023-02-17T13:06:43.080Z,11.23
2023-02-17T13:09:41.098Z,10.57
2023-02-17T13:12:28.396Z,9.55
2023-02-17T13:14:59.112Z,9.23
2023-02-17T13:17:38.468Z,11.30
2023-02-17T13:20:11.997Z,10.70
2023-02-17T13:22:42.258Z,10.00
2023-02-17T13:25:32.097Z,10.75
2023-02-17T13:28:01.793Z,11.82
2023-02-17T13:30:43.033Z,10.52
2023-02-17T13:33:47.969Z,10.35
2023-02-17T13:36:22.345Z,10.85
2023-02-17T13:39:29.526Z,11.18
2023-02-17T13:42:01.102Z,10.40
2023-02-17T13:44:41.798Z,11.25
2023-02-17T13:47:36.534Z,11.18
2023-02-17T13:50:06.524Z,11.80
2023-02-17T13:52:33.960Z,12.93
2023-02-17T13:55:06.078Z,12.32
2023-02-17T13:57:37.599Z,11.63
2023-02-17T14:00:18.296Z,11.40
2023-02-17T14:02:59.647Z,11.57
2023-02-17T14:05:33.153Z,11.82
2023-02-17T14:08:08.223Z,12.25
2023-02-17T14:10:36.676Z,12.60
2023-02-17T14:13:04.443Z,12.50
2023-02-17T14:15:31.762Z,11.82
2023-02-17T14:17:58.928Z,11.35
2023-02-17T14:20:36.304Z,11.88
2023-02-17T14:23:13.374Z,11.65
2023-02-17T14:25:47.521Z,11.75
2023-02-17T14:28:21.104Z,12.75
2023-02-17T14:30:48.948Z,11.82
2023-02-17T14:33:25.719Z,11.93
2023-02-17T14:36:07.808Z,11.85
2023-02-17T14:38:41.078Z,11.27
2023-02-17T14:41:09.607Z,12.43
2023-02-17T14:43:37.413Z,12.57
2023-02-17T14:46:05.536Z,11.77
2023-02-17T14:48:33.053Z,11.00
2023-02-17T14:51:00.345Z,9.98
2023-02-17T14:53:35.364Z,11.70
2023-02-17T14:56:36.840Z,11.80
2023-02-17T14:59:04.912Z,11.88
2023-02-17T15:01:32.195Z,11.00
2023-02-17T15:03:59.423Z,11.68
2023-02-17T15:06:38.928Z,11.80
2023-02-17T15:09:17.851Z,12.57
2023-02-17T15:11:46.361Z,11.45
2023-02-17T15:14:20.361Z,11.73
2023-02-17T15:16:48.761Z,12.85
2023-02-17T15:19:18.030Z,11.57
2023-02-17T15:21:50.582Z,11.93
2023-02-17T15:24:25.699Z,11.48
2023-02-17T15:26:55.792Z,11.25
2023-02-17T15:29:25.181Z,10.98
2023-02-17T15:31:54.730Z,11.80
2023-02-17T15:34:30.791Z,12.07
2023-02-17T15:37:00.747Z,11.02
2023-02-17T15:39:28.589Z,12.43
2023-02-17T15:42:06.075Z,13.90
2023-02-17T15:44:50.571Z,12.05
2023-02-17T15:47:20.461Z,11.38
2023-02-17T15:49:48.041Z,10.68
2023-02-17T15:52:16.003Z,11.52
2023-02-17T15:57:31.350Z,12.07
2023-02-17T15:59:58.842Z,13.05
2023-02-17T16:02:26.200Z,11.88
2023-02-17T16:04:53.392Z,10.02
2023-02-17T16:07:20.567Z,11.90
2023-02-17T16:09:47.802Z,11.82
2023-02-17T16:12:26.537Z,12.27
2023-02-17T16:14:56.033Z,12.80
2023-02-17T16:17:23.848Z,12.88
2023-02-17T16:19:51.415Z,12.30
2023-02-17T16:22:18.697Z,12.98
2023-02-17T16:24:45.952Z,13.15
2023-02-17T16:27:16.839Z,12.60
2023-02-17T16:29:44.340Z,13.70
2023-02-17T16:32:13.727Z,14.07
2023-02-17T16:34:41.830Z,13.73
2023-02-17T16:37:16.383Z,14.50
2023-02-17T16:39:44.370Z,13.00
2023-02-17T16:42:14.680Z,14.57
2023-02-17T16:44:42.519Z,13.55
2023-02-17T16:47:20.964Z,13.48
2023-02-17T16:49:48.753Z,14.30
2023-02-17T16:52:26.812Z,13.23
2023-02-17T16:54:55.022Z,13.73
2023-02-17T16:57:22.793Z,12.52
2023-02-17T16:59:50.115Z,12.68
2023-02-17T17:02:17.348Z,13.73
2023-02-17T17:04:44.677Z,13.23
2023-02-17T17:07:15.973Z,14.50
2023-02-17T17:09:48.768Z,13.32
2023-02-17T17:12:23.463Z,14.35
2023-02-17T17:14:50.691Z,15.85
2023-02-17T17:17:17.831Z,14.63
2023-02-17T17:22:13.051Z,14.95
2023-02-17T17:24:40.244Z,15.23
2023-02-17T17:27:07.484Z,15.60
2023-02-17T17:29:34.649Z,16.17
2023-02-17T17:32:02.015Z,16.67
2023-02-17T17:34:29.508Z,16.50
2023-02-17T17:36:57.269Z,16.17
2023-02-17T17:39:25.183Z,16.35
2023-02-17T17:41:52.496Z,16.73
2023-02-17T17:44:20.556Z,16.60
2023-02-17T17:46:47.763Z,15.93
2023-02-17T17:49:18.090Z,14.35
2023-02-17T17:51:45.435Z,15.63
2023-02-17T17:54:12.646Z,16.55
2023-02-17T17:56:43.127Z,15.00
2023-02-17T17:59:12.964Z,14.95
2023-02-17T18:01:40.565Z,15.75
2023-02-17T18:04:09.313Z,15.43
2023-02-17T18:06:51.661Z,15.45
2023-02-17T18:09:32.059Z,16.15
2023-02-17T18:12:08.692Z,14.55
2023-02-17T18:14:39.300Z,15.45
2023-02-17T18:17:10.267Z,15.10
2023-02-17T18:19:38.456Z,16.58
2023-02-17T18:22:05.768Z,13.95
2023-02-17T18:24:33.033Z,13.55
2023-02-17T18:27:00.203Z,14.57
2023-02-17T18:29:27.857Z,14.80
2023-02-17T18:31:55.169Z,11.50
2023-02-17T18:34:22.412Z,9.98
2023-02-17T18:36:49.626Z,11.23
2023-02-17T18:39:16.754Z,8.40
2023-02-17T18:41:44.288Z,9.82
2023-02-17T18:44:13.596Z,9.23
2023-02-17T18:46:41.604Z,9.38
2023-02-17T18:49:09.572Z,8.48
2023-02-17T18:51:37.107Z,8.43
2023-02-17T18:54:05.171Z,9.50
2023-02-17T18:56:33.869Z,7.60
2023-02-17T18:59:02.026Z,8.32
2023-02-17T19:01:36.220Z,9.73
2023-02-17T19:04:04.859Z,6.45
2023-02-17T19:06:34.765Z,6.55
2023-02-17T19:09:04.462Z,7.45
2023-02-17T19:11:33.861Z,8.32
2023-02-17T19:14:03.375Z,8.15
2023-02-17T19:16:32.541Z,8.50
2023-02-17T19:19:00.720Z,8.18
2023-02-17T19:21:28.113Z,9.10
2023-02-17T19:23:55.873Z,7.30
2023-02-17T19:26:23.325Z,8.70
2023-02-17T19:28:50.479Z,7.80
2023-02-17T19:31:20.758Z,8.82
2023-02-17T19:33:48.215Z,8.43
2023-02-17T19:36:20.707Z,7.93
2023-02-17T19:38:49.769Z,8.10
2023-02-17T19:41:19.119Z,8.38
2023-02-17T19:43:46.503Z,7.88
2023-02-17T19:46:16.449Z,8.65
2023-02-17T19:48:43.760Z,8.48
2023-02-17T19:51:15.256Z,8.23
2023-02-17T19:53:43.957Z,9.30
2023-02-17T19:56:23.144Z,8.88
2023-02-17T19:58:51.546Z,9.15
2023-02-17T20:01:27.495Z,9.75
2023-02-17T20:03:56.236Z,9.00
2023-02-17T20:06:44.858Z,8.10
2023-02-17T20:09:19.887Z,9.30
2023-02-17T20:11:52.234Z,8.30
2023-02-17T20:14:20.679Z,9.45
2023-02-17T20:16:53.146Z,8.98
2023-02-17T20:19:20.369Z,8.90
2023-02-17T20:21:47.579Z,8.70
2023-02-17T20:24:15.320Z,8.88
2023-02-17T20:26:47.399Z,8.77
2023-02-17T20:29:15.314Z,10.13
2023-02-17T20:31:43.389Z,9.70
2023-02-17T20:34:39.209Z,9.93
2023-02-17T20:37:08.500Z,8.98
2023-02-17T20:39:36.292Z,9.63
2023-02-17T20:42:04.145Z,10.60
2023-02-17T20:44:31.478Z,10.65
2023-02-17T20:46:59.082Z,9.52
2023-02-17T20:49:27.044Z,9.60
2023-02-17T20:51:54.903Z,9.55
2023-02-17T20:54:24.658Z,10.35
2023-02-17T20:56:52.368Z,11.15
2023-02-17T20:59:20.518Z,15.70
2023-02-17T21:01:48.400Z,15.70
2023-02-17T21:04:15.667Z,17.67
2023-02-17T21:06:43.219Z,11.60
2023-02-17T21:09:17.903Z,9.93
2023-02-17T21:11:46.755Z,13.52
2023-02-17T21:14:14.195Z,16.90
2023-02-17T21:16:41.584Z,13.57
2023-02-17T21:19:08.991Z,13.48
2023-02-17T21:21:36.406Z,12.85
2023-02-17T21:24:04.746Z,11.30
2023-02-17T21:26:33.510Z,11.10
2023-02-17T21:29:00.856Z,12.77
2023-02-17T21:31:31.157Z,9.50
2023-02-17T21:33:59.817Z,10.25
2023-02-17T21:36:29.177Z,8.93
2023-02-17T21:38:57.168Z,8.07
2023-02-17T21:41:27.549Z,9.13
2023-02-17T21:44:14.126Z,8.95
2023-02-17T21:46:43.174Z,7.75
2023-02-17T21:49:11.998Z,9.10
2023-02-17T21:51:40.744Z,8.55
2023-02-17T21:54:09.577Z,7.72
2023-02-17T21:56:37.007Z,8.57
2023-02-17T21:59:05.401Z,8.98
2023-02-17T22:01:32.947Z,7.47
2023-02-17T22:04:00.393Z,7.90
2023-02-17T22:06:37.136Z,8.55
2023-02-17T22:09:07.920Z,8.30
2023-02-17T22:11:42.001Z,8.07
2023-02-17T22:14:16.624Z,8.43
2023-02-17T22:19:22.800Z,8.38
2023-02-17T22:21:51.633Z,9.15
2023-02-17T22:24:20.742Z,9.82
2023-02-17T22:26:49.786Z,10.27
2023-02-17T22:29:16.930Z,9.38
2023-02-17T22:31:44.249Z,10.38
2023-02-17T22:34:15.335Z,10.25
2023-02-17T22:36:42.592Z,10.13
2023-02-17T22:39:09.901Z,9.35
2023-02-17T22:41:38.768Z,10.05
2023-02-17T22:44:07.399Z,8.65
2023-02-17T22:46:35.220Z,8.98
2023-02-17T22:49:02.646Z,9.10
2023-02-17T22:51:39.045Z,9.57
2023-02-17T22:54:07.604Z,8.98
2023-02-17T22:56:35.143Z,9.02
2023-02-17T22:59:04.256Z,9.07
2023-02-17T23:01:34.912Z,9.88
2023-02-17T23:04:02.730Z,8.70
2023-02-17T23:06:37.354Z,9.80
2023-02-17T23:09:07.488Z,9.93
2023-02-17T23:11:51.031Z,8.95
2023-02-17T23:14:36.896Z,9.60
2023-02-17T23:17:13.220Z,9.70
2023-02-17T23:19:42.426Z,10.05
2023-02-17T23:22:16.197Z,10.02
2023-02-17T23:24:46.398Z,9.82
2023-02-17T23:27:14.489Z,10.18
2023-02-17T23:29:42.265Z,10.07
2023-02-17T23:32:09.924Z,10.18
2023-02-17T23:34:38.122Z,10.70
2023-02-17T23:37:05.273Z,10.40
2023-02-17T23:39:36.991Z,10.40
2023-02-17T23:42:04.284Z,10.63
2023-02-17T23:44:31.419Z,10.75
2023-02-17T23:46:58.649Z,11.00
2023-02-17T23:49:25.767Z,10.70
2023-02-17T23:51:53.338Z,11.30
2023-02-17T23:54:20.509Z,11.30
2023-02-17T23:56:47.706Z,10.73
2023-02-17T23:59:14.942Z,12.60
